createdAt,value
2023-03-31T00:00:32.711Z,38.15
2023-03-31T00:02:42.293Z,36.75
2023-03-31T00:04:53.509Z,37.35
2023-03-31T00:07:00.715Z,39.83
2023-03-31T00:09:11.683Z,40.40
2023-03-31T00:11:19.277Z,41.25
2023-03-31T00:13:26.767Z,41.35
2023-03-31T00:15:33.692Z,41.88
2023-03-31T00:17:41.062Z,45.28
2023-03-31T00:19:51.016Z,47.83
2023-03-31T00:21:58.351Z,46.08
2023-03-31T00:24:07.070Z,43.53
2023-03-31T00:26:16.107Z,39.95
2023-03-31T00:28:22.918Z,40.70
2023-03-31T00:30:29.995Z,40.47
2023-03-31T00:32:38.614Z,38.00
2023-03-31T00:34:45.843Z,38.05
2023-03-31T00:36:57.323Z,39.22
2023-03-31T00:39:09.819Z,37.50
2023-03-31T00:41:18.703Z,37.55
2023-03-31T00:43:33.670Z,36.15
2023-03-31T00:45:41.243Z,37.08
2023-03-31T00:47:50.841Z,36.25
2023-03-31T00:49:59.867Z,36.17
2023-03-31T00:52:10.993Z,34.47
2023-03-31T00:54:20.614Z,34.65
2023-03-31T00:56:33.684Z,33.30
2023-03-31T00:58:44.680Z,33.67
2023-03-31T01:00:53.931Z,32.55
2023-03-31T01:03:06.017Z,31.27
2023-03-31T01:05:13.693Z,30.52
2023-03-31T01:07:26.768Z,30.83
2023-03-31T01:09:39.984Z,30.45
2023-03-31T01:11:49.729Z,31.73
2023-03-31T01:13:59.070Z,29.85
2023-03-31T01:16:06.756Z,29.33
2023-03-31T01:18:17.329Z,29.40
2023-03-31T01:20:33.507Z,28.70
2023-03-31T01:23:11.728Z,29.58
2023-03-31T01:25:56.376Z,30.00
2023-03-31T01:28:13.648Z,30.33
2023-03-31T01:31:01.255Z,30.58
2023-03-31T01:33:34.414Z,28.63
2023-03-31T01:36:19.542Z,29.58
2023-03-31T01:39:02.250Z,30.23
2023-03-31T01:41:35.032Z,30.30
2023-03-31T01:43:48.926Z,29.42
2023-03-31T01:46:01.807Z,28.92
2023-03-31T01:48:15.879Z,29.05
2023-03-31T01:50:29.677Z,31.08
2023-03-31T01:52:45.193Z,30.08
2023-03-31T01:54:56.779Z,30.38
2023-03-31T01:57:14.831Z,29.52
2023-03-31T01:59:27.320Z,29.75
2023-03-31T02:01:39.563Z,30.80
2023-03-31T02:03:52.989Z,29.95
2023-03-31T02:06:04.099Z,29.38
2023-03-31T02:08:16.431Z,28.48
2023-03-31T02:10:25.655Z,28.33
2023-03-31T02:12:41.908Z,29.77
2023-03-31T02:14:52.993Z,30.02
2023-03-31T02:17:03.431Z,29.42
2023-03-31T02:19:12.098Z,29.10
2023-03-31T02:21:20.164Z,29.02
2023-03-31T02:23:32.610Z,29.13
2023-03-31T02:25:47.265Z,29.67
2023-03-31T02:27:59.980Z,29.27
2023-03-31T02:30:07.873Z,29.75
2023-03-31T02:32:19.354Z,29.35
2023-03-31T02:34:26.983Z,29.35
2023-03-31T02:36:34.894Z,28.30
2023-03-31T02:38:46.945Z,29.25
2023-03-31T02:40:54.375Z,30.30
2023-03-31T02:43:02.995Z,29.65
2023-03-31T02:45:42.352Z,31.33
2023-03-31T02:47:49.771Z,30.35
2023-03-31T02:49:59.879Z,29.45
2023-03-31T02:52:26.858Z,28.67
2023-03-31T02:54:57.598Z,30.35
2023-03-31T02:57:36.315Z,29.90
2023-03-31T02:59:58.861Z,29.48
2023-03-31T03:02:16.301Z,28.83
2023-03-31T03:04:44.864Z,29.38
2023-03-31T03:07:01.885Z,29.67
2023-03-31T03:09:19.657Z,28.50
2023-03-31T03:11:34.876Z,29.45
2023-03-31T03:13:50.096Z,29.10
2023-03-31T03:16:04.773Z,28.17
2023-03-31T03:18:12.550Z,28.83
2023-03-31T03:20:22.234Z,28.60
2023-03-31T03:22:29.682Z,27.60
2023-03-31T03:24:37.082Z,27.77
2023-03-31T03:26:45.834Z,26.73
2023-03-31T03:28:52.874Z,27.80
2023-03-31T03:31:01.684Z,26.92
2023-03-31T03:33:09.298Z,27.85
2023-03-31T03:35:16.150Z,27.95
2023-03-31T03:37:23.902Z,27.85
2023-03-31T03:39:30.872Z,29.45
2023-03-31T03:41:38.211Z,28.92
2023-03-31T03:43:45.346Z,28.58
2023-03-31T03:45:52.919Z,28.58
2023-03-31T03:48:01.684Z,27.63
2023-03-31T03:50:09.954Z,28.55
2023-03-31T03:52:16.981Z,27.45
2023-03-31T03:54:24.365Z,28.17
2023-03-31T03:56:31.405Z,28.10
2023-03-31T03:58:38.574Z,27.23
2023-03-31T04:00:46.369Z,27.90
2023-03-31T04:02:53.615Z,28.60
2023-03-31T04:05:02.588Z,27.83
2023-03-31T04:07:10.114Z,28.50
2023-03-31T04:09:17.111Z,27.80
2023-03-31T04:11:24.747Z,27.50
2023-03-31T04:13:31.741Z,27.77
2023-03-31T04:15:38.959Z,26.52
2023-03-31T04:17:51.895Z,28.27
2023-03-31T04:20:06.310Z,27.67
2023-03-31T04:22:16.462Z,27.35
2023-03-31T04:24:24.093Z,27.02
2023-03-31T04:26:40.104Z,41.67
2023-03-31T04:28:51.621Z,39.42
2023-03-31T04:30:59.931Z,28.70
2023-03-31T04:33:07.742Z,27.05
2023-03-31T04:35:16.500Z,26.35
2023-03-31T04:37:23.731Z,28.38
2023-03-31T04:39:31.739Z,27.17
2023-03-31T04:41:39.030Z,28.20
2023-03-31T04:43:46.501Z,27.63
2023-03-31T04:45:53.789Z,28.33
2023-03-31T04:48:00.840Z,26.25
2023-03-31T04:50:10.385Z,27.85
2023-03-31T04:52:21.798Z,33.97
2023-03-31T04:54:29.031Z,41.00
2023-03-31T04:56:35.988Z,39.03
2023-03-31T04:58:43.376Z,28.50
2023-03-31T05:00:50.353Z,28.17
2023-03-31T05:02:58.045Z,25.30
2023-03-31T05:05:05.539Z,25.67
2023-03-31T05:07:12.828Z,24.88
2023-03-31T05:09:21.697Z,25.83
2023-03-31T05:11:29.979Z,26.77
2023-03-31T05:13:36.986Z,24.63
2023-03-31T05:15:46.163Z,27.15
2023-03-31T05:17:53.562Z,26.90
2023-03-31T05:20:00.883Z,25.70
2023-03-31T05:22:07.874Z,27.05
2023-03-31T05:24:15.608Z,27.88
2023-03-31T05:26:26.077Z,26.90
2023-03-31T05:28:33.050Z,26.35
2023-03-31T05:30:40.485Z,27.52
2023-03-31T05:32:47.731Z,31.73
2023-03-31T05:34:58.149Z,41.00
2023-03-31T05:37:05.673Z,35.17
2023-03-31T05:39:12.686Z,30.40
2023-03-31T05:41:19.710Z,27.42
2023-03-31T05:43:30.020Z,27.00
2023-03-31T05:45:37.422Z,25.33
2023-03-31T05:47:44.508Z,26.42
2023-03-31T05:49:52.036Z,26.48
2023-03-31T05:51:59.103Z,26.17
2023-03-31T05:54:07.260Z,27.38
2023-03-31T05:56:14.745Z,27.48
2023-03-31T05:58:22.045Z,27.75
2023-03-31T06:00:31.008Z,26.45
2023-03-31T06:02:38.378Z,25.05
2023-03-31T06:04:45.265Z,26.17
2023-03-31T06:06:53.011Z,24.33
2023-03-31T06:08:59.985Z,25.25
2023-03-31T06:11:09.657Z,25.13
2023-03-31T06:13:16.806Z,23.98
2023-03-31T06:15:24.159Z,25.33
2023-03-31T06:17:32.846Z,24.50
2023-03-31T06:19:41.283Z,23.27
2023-03-31T06:21:48.252Z,23.70
2023-03-31T06:23:57.171Z,23.75
2023-03-31T06:26:07.372Z,22.70
2023-03-31T06:28:14.609Z,21.90
2023-03-31T06:30:21.682Z,22.08
2023-03-31T06:32:29.043Z,21.83
2023-03-31T06:34:38.309Z,21.27
2023-03-31T06:36:45.448Z,22.77
2023-03-31T06:38:52.984Z,20.58
2023-03-31T06:41:00.373Z,21.45
2023-03-31T06:43:07.230Z,22.25
2023-03-31T06:45:15.394Z,21.83
2023-03-31T06:47:22.402Z,21.75
2023-03-31T06:49:29.697Z,21.27
2023-03-31T06:51:38.316Z,22.27
2023-03-31T06:53:45.546Z,21.98
2023-03-31T06:55:52.373Z,22.60
2023-03-31T06:57:59.914Z,22.17
2023-03-31T07:00:08.848Z,21.70
2023-03-31T07:02:16.215Z,21.48
2023-03-31T07:04:23.298Z,22.45
2023-03-31T07:06:30.535Z,22.10
2023-03-31T07:08:39.235Z,21.42
2023-03-31T07:10:48.119Z,21.52
2023-03-31T07:12:55.042Z,19.73
2023-03-31T07:15:02.323Z,20.48
2023-03-31T07:17:09.301Z,21.00
2023-03-31T07:19:16.592Z,19.73
2023-03-31T07:21:23.612Z,20.80
2023-03-31T07:23:30.952Z,20.13
2023-03-31T07:25:39.740Z,20.10
2023-03-31T07:27:47.576Z,19.65
2023-03-31T07:29:54.388Z,19.65
2023-03-31T07:32:01.616Z,20.45
2023-03-31T07:34:08.902Z,19.42
2023-03-31T07:36:16.374Z,19.58
2023-03-31T07:38:23.526Z,19.52
2023-03-31T07:40:33.466Z,20.00
2023-03-31T07:42:42.341Z,18.40
2023-03-31T07:44:49.732Z,19.08
2023-03-31T07:46:56.754Z,17.73
2023-03-31T07:49:04.772Z,17.88
2023-03-31T07:51:12.142Z,17.10
2023-03-31T07:53:19.386Z,18.42
2023-03-31T07:55:27.735Z,17.05
2023-03-31T07:57:34.941Z,18.05
2023-03-31T07:59:43.843Z,17.55
2023-03-31T08:01:51.332Z,18.80
2023-03-31T08:03:58.539Z,17.15
2023-03-31T08:06:06.063Z,16.83
2023-03-31T08:08:13.139Z,15.73
2023-03-31T08:10:22.013Z,17.65
2023-03-31T08:12:29.229Z,17.20
2023-03-31T08:14:41.170Z,16.45
2023-03-31T08:16:50.665Z,17.35
2023-03-31T08:21:24.229Z,15.98
2023-03-31T08:23:31.623Z,16.92
2023-03-31T08:25:38.854Z,16.33
2023-03-31T08:27:45.920Z,15.35
2023-03-31T08:29:53.206Z,14.95
2023-03-31T08:32:01.981Z,16.75
2023-03-31T08:34:09.621Z,15.32
2023-03-31T08:36:17.442Z,15.18
2023-03-31T08:38:24.956Z,16.13
2023-03-31T08:40:33.621Z,14.57
2023-03-31T08:42:44.127Z,16.98
2023-03-31T08:45:01.298Z,16.98
2023-03-31T08:47:16.717Z,16.83
2023-03-31T08:49:24.723Z,15.85
2023-03-31T08:51:34.114Z,16.55
2023-03-31T08:53:45.690Z,15.52
2023-03-31T08:55:55.289Z,16.67
2023-03-31T08:58:06.879Z,16.55
2023-03-31T09:00:19.982Z,16.08
2023-03-31T09:02:34.341Z,16.52
2023-03-31T09:04:54.377Z,16.65
2023-03-31T09:07:07.756Z,16.38
2023-03-31T09:09:26.692Z,17.20
2023-03-31T09:11:38.295Z,15.77
2023-03-31T09:14:00.162Z,16.38
2023-03-31T09:16:16.756Z,17.15
2023-03-31T09:18:38.178Z,16.40
2023-03-31T09:20:48.643Z,16.13
2023-03-31T09:23:04.840Z,16.48
2023-03-31T09:25:15.666Z,15.68
2023-03-31T09:27:24.108Z,16.13
2023-03-31T09:29:37.529Z,16.15
2023-03-31T09:31:47.268Z,16.90
2023-03-31T09:34:01.013Z,17.05
2023-03-31T09:36:18.835Z,16.67
2023-03-31T09:38:25.720Z,16.45
2023-03-31T09:40:33.211Z,16.73
2023-03-31T09:42:41.320Z,16.55
2023-03-31T09:44:51.003Z,16.88
2023-03-31T09:46:58.926Z,15.52
2023-03-31T09:49:14.799Z,16.33
2023-03-31T09:51:26.913Z,15.98
2023-03-31T09:53:38.265Z,17.63
2023-03-31T09:55:49.389Z,15.38
2023-03-31T10:01:04.797Z,4.13
2023-03-31T10:03:16.921Z,3.60
2023-03-31T10:07:37.481Z,3.78
2023-03-31T10:09:45.848Z,3.63
2023-03-31T10:12:02.657Z,3.40
2023-03-31T10:14:16.140Z,3.92
2023-03-31T10:16:31.915Z,3.92
2023-03-31T10:18:40.480Z,3.42
2023-03-31T10:20:52.380Z,3.20
2023-03-31T10:22:59.404Z,2.97
2023-03-31T10:25:17.951Z,2.85
2023-03-31T10:27:28.728Z,2.80
2023-03-31T10:29:37.350Z,2.67
2023-03-31T10:31:46.179Z,2.40
2023-03-31T10:33:55.089Z,2.75
2023-03-31T10:36:04.410Z,2.20
2023-03-31T10:38:16.395Z,1.92
2023-03-31T10:42:32.096Z,2.20
2023-03-31T10:44:40.551Z,2.55
2023-03-31T10:46:52.458Z,2.63
2023-03-31T10:51:14.924Z,2.50
2023-03-31T10:53:23.208Z,3.00
2023-03-31T10:55:36.753Z,2.90
2023-03-31T10:57:52.068Z,3.33
2023-03-31T11:00:21.561Z,3.30
2023-03-31T11:02:51.128Z,3.63
2023-03-31T11:05:06.697Z,3.80
2023-03-31T11:07:24.220Z,4.45
2023-03-31T11:09:48.963Z,4.50
2023-03-31T11:12:05.463Z,5.18
2023-03-31T11:14:19.610Z,4.72
2023-03-31T11:16:32.713Z,4.35
2023-03-31T11:19:00.960Z,5.20
2023-03-31T11:21:21.401Z,5.13
2023-03-31T11:23:39.588Z,5.65
2023-03-31T11:25:55.064Z,5.65
2023-03-31T11:28:35.176Z,5.63
2023-03-31T11:30:46.855Z,6.35
2023-03-31T11:33:06.853Z,5.32
2023-03-31T11:35:40.559Z,6.35
2023-03-31T11:38:02.774Z,5.82
2023-03-31T11:40:31.466Z,5.55
2023-03-31T11:42:42.839Z,5.30
2023-03-31T11:44:54.994Z,5.93
2023-03-31T11:47:07.572Z,5.80
2023-03-31T11:49:21.233Z,6.60
2023-03-31T11:51:34.820Z,6.03
2023-03-31T11:53:44.705Z,5.90
2023-03-31T11:55:55.011Z,6.20
2023-03-31T11:58:06.962Z,6.07
2023-03-31T12:00:20.810Z,6.00
2023-03-31T12:02:40.268Z,6.32
2023-03-31T12:04:51.488Z,6.47
2023-03-31T12:07:06.056Z,8.37
2023-03-31T12:09:20.551Z,8.80
2023-03-31T12:11:35.507Z,8.68
2023-03-31T12:13:51.243Z,8.32
2023-03-31T12:16:07.677Z,8.07
2023-03-31T12:18:21.324Z,7.80
2023-03-31T12:20:34.856Z,7.88
2023-03-31T12:22:46.795Z,7.47
2023-03-31T12:27:11.357Z,8.15
2023-03-31T12:29:28.864Z,7.40
2023-03-31T12:31:37.117Z,7.97
2023-03-31T12:33:46.520Z,8.00
2023-03-31T12:36:11.088Z,8.30
2023-03-31T12:38:34.224Z,8.25
2023-03-31T12:40:49.479Z,7.70
2023-03-31T12:43:11.817Z,8.07
2023-03-31T12:45:27.907Z,7.68
2023-03-31T12:47:56.470Z,7.95
2023-03-31T12:50:25.176Z,7.72
2023-03-31T12:52:43.163Z,7.38
2023-03-31T12:55:25.762Z,8.02
2023-03-31T12:59:40.404Z,8.20
2023-03-31T13:02:26.712Z,7.88
2023-03-31T13:04:34.490Z,9.82
2023-03-31T13:07:00.496Z,10.95
2023-03-31T13:09:09.827Z,10.18
2023-03-31T13:11:18.722Z,10.43
2023-03-31T13:13:26.116Z,10.70
2023-03-31T13:15:33.673Z,10.23
2023-03-31T13:17:42.362Z,10.40
2023-03-31T13:19:49.385Z,9.48
2023-03-31T13:21:58.226Z,9.65
2023-03-31T13:24:05.899Z,9.60
2023-03-31T13:26:49.211Z,9.57
2023-03-31T13:29:14.535Z,9.70
2023-03-31T13:31:21.799Z,9.98
2023-03-31T13:33:34.374Z,9.23
2023-03-31T13:35:43.839Z,10.10
2023-03-31T13:38:11.559Z,9.27
2023-03-31T13:40:54.274Z,9.32
2023-03-31T13:43:41.150Z,9.95
2023-03-31T13:48:36.018Z,25.17
2023-03-31T13:51:01.370Z,22.77
2023-03-31T13:53:19.965Z,22.50
2023-03-31T13:55:43.285Z,23.05
2023-03-31T13:58:35.416Z,22.48
2023-03-31T14:00:51.198Z,22.45
2023-03-31T14:03:22.867Z,23.20
2023-03-31T14:07:47.303Z,22.60
2023-03-31T14:09:58.064Z,21.90
2023-03-31T14:12:21.631Z,21.73
2023-03-31T14:14:30.756Z,22.23
2023-03-31T14:16:41.336Z,23.67
2023-03-31T14:18:55.361Z,21.70
2023-03-31T14:21:18.929Z,22.55
2023-03-31T14:23:36.042Z,23.52
2023-03-31T14:25:52.851Z,22.08
2023-03-31T14:28:11.044Z,22.52
2023-03-31T14:30:28.208Z,21.08
2023-03-31T14:32:42.814Z,22.80
2023-03-31T14:35:09.035Z,23.00
2023-03-31T14:37:22.163Z,24.35
2023-03-31T14:39:34.211Z,22.98
2023-03-31T14:41:42.671Z,22.13
2023-03-31T14:43:53.234Z,22.25
2023-03-31T14:46:04.050Z,22.75
2023-03-31T14:48:17.516Z,23.73
2023-03-31T14:50:24.609Z,25.25
2023-03-31T14:52:36.717Z,25.50
2023-03-31T14:54:44.042Z,24.48
2023-03-31T14:56:54.002Z,26.65
2023-03-31T14:59:01.375Z,25.75
2023-03-31T15:01:10.623Z,26.20
2023-03-31T15:03:19.791Z,25.17
2023-03-31T15:05:32.989Z,25.45
2023-03-31T15:07:44.289Z,24.38
2023-03-31T15:09:54.588Z,24.05
2023-03-31T15:12:04.281Z,24.52
2023-03-31T15:14:12.640Z,24.63
2023-03-31T15:16:34.513Z,24.50
2023-03-31T15:18:45.434Z,25.52
2023-03-31T15:20:52.665Z,24.48
2023-03-31T15:23:02.826Z,24.52
2023-03-31T15:25:15.632Z,24.40
2023-03-31T15:27:36.907Z,23.77
2023-03-31T15:29:48.801Z,24.52
2023-03-31T15:31:59.131Z,24.67
2023-03-31T15:34:22.980Z,22.77
2023-03-31T15:36:33.014Z,23.33
2023-03-31T15:38:42.499Z,22.50
2023-03-31T15:40:52.847Z,23.30
2023-03-31T15:43:06.355Z,22.42
2023-03-31T15:45:48.648Z,23.70
2023-03-31T15:47:57.082Z,24.30
2023-03-31T15:50:15.698Z,23.70
2023-03-31T15:52:29.644Z,22.45
2023-03-31T15:54:44.901Z,22.85
2023-03-31T15:56:52.281Z,23.25
2023-03-31T15:59:01.723Z,22.52
2023-03-31T16:01:09.657Z,22.70
2023-03-31T16:03:22.210Z,23.15
2023-03-31T16:08:16.646Z,22.77
2023-03-31T16:10:26.534Z,22.35
2023-03-31T16:12:36.581Z,22.33
2023-03-31T16:14:49.499Z,23.02
2023-03-31T16:17:02.306Z,23.55
2023-03-31T16:19:12.765Z,23.35
2023-03-31T16:21:25.681Z,22.67
2023-03-31T16:23:34.716Z,22.80
2023-03-31T16:25:44.703Z,23.13
2023-03-31T16:27:54.450Z,23.23
2023-03-31T16:30:12.944Z,22.70
2023-03-31T16:32:21.715Z,22.60
2023-03-31T16:34:34.730Z,22.85
2023-03-31T16:36:42.054Z,22.80
2023-03-31T16:38:49.713Z,21.95
2023-03-31T16:40:59.757Z,22.67
2023-03-31T16:43:16.779Z,22.20
2023-03-31T16:45:23.848Z,22.00
2023-03-31T16:49:58.078Z,23.45
2023-03-31T16:52:06.180Z,23.23
2023-03-31T16:54:13.519Z,22.25
2023-03-31T16:56:23.061Z,22.50
2023-03-31T16:58:31.146Z,23.38
2023-03-31T17:00:41.243Z,22.60
2023-03-31T17:02:48.598Z,23.02
2023-03-31T17:04:59.714Z,23.42
2023-03-31T17:07:13.348Z,23.30
2023-03-31T17:09:20.556Z,22.13
2023-03-31T17:11:29.508Z,22.88
2023-03-31T17:13:37.354Z,22.42
2023-03-31T17:15:44.537Z,22.58
2023-03-31T17:17:51.888Z,23.27
2023-03-31T17:20:00.275Z,23.80
2023-03-31T17:22:08.182Z,21.50
2023-03-31T17:24:15.212Z,22.60
2023-03-31T17:26:23.520Z,22.05
2023-03-31T17:28:32.844Z,22.42
2023-03-31T17:30:40.864Z,22.73
2023-03-31T17:32:49.315Z,23.20
2023-03-31T17:34:57.101Z,21.52
2023-03-31T17:37:04.132Z,21.67
2023-03-31T17:39:11.563Z,22.25
2023-03-31T17:41:18.797Z,20.98
2023-03-31T17:43:25.987Z,20.67
2023-03-31T17:45:35.060Z,21.05
2023-03-31T17:47:42.476Z,20.60
2023-03-31T17:49:49.624Z,21.30
2023-03-31T17:51:57.009Z,21.52
2023-03-31T17:54:04.295Z,21.77
2023-03-31T17:56:11.753Z,21.05
2023-03-31T17:58:18.759Z,21.63
2023-03-31T18:00:26.937Z,21.73
2023-03-31T18:02:35.598Z,22.38
2023-03-31T18:04:43.252Z,21.05
2023-03-31T18:06:51.427Z,21.83
2023-03-31T18:09:00.131Z,21.70
2023-03-31T18:11:08.324Z,21.58
2023-03-31T18:13:15.633Z,21.55
2023-03-31T18:15:22.684Z,21.52
2023-03-31T18:17:31.462Z,22.27
2023-03-31T18:19:40.506Z,21.83
2023-03-31T18:21:47.792Z,22.63
2023-03-31T18:23:56.308Z,20.60
2023-03-31T18:26:03.946Z,21.23
2023-03-31T18:28:10.833Z,22.08
2023-03-31T18:30:18.622Z,21.20
2023-03-31T18:32:25.693Z,22.00
2023-03-31T18:34:34.207Z,21.63
2023-03-31T18:36:42.930Z,22.25
2023-03-31T18:38:50.925Z,20.75
2023-03-31T18:40:59.436Z,20.85
2023-03-31T18:43:06.885Z,21.13
2023-03-31T18:45:14.046Z,20.73
2023-03-31T18:47:21.120Z,20.30
2023-03-31T18:49:27.965Z,20.55
2023-03-31T18:51:35.859Z,21.20
2023-03-31T18:53:44.791Z,20.30
2023-03-31T18:55:53.451Z,21.80
2023-03-31T18:58:00.267Z,20.92
2023-03-31T19:00:08.789Z,20.25
2023-03-31T19:02:17.101Z,20.52
2023-03-31T19:04:24.480Z,20.30
2023-03-31T19:06:31.662Z,20.27
2023-03-31T19:08:39.013Z,19.02
2023-03-31T19:10:47.664Z,18.25
2023-03-31T19:12:55.415Z,19.17
2023-03-31T19:15:02.248Z,18.48
2023-03-31T19:17:09.860Z,18.48
2023-03-31T19:19:16.857Z,17.08
2023-03-31T19:21:24.406Z,16.88
2023-03-31T19:23:31.321Z,16.73
2023-03-31T19:25:38.758Z,16.52
2023-03-31T19:27:47.905Z,17.38
2023-03-31T19:29:55.222Z,17.35
2023-03-31T19:32:02.258Z,16.23
2023-03-31T19:34:09.960Z,15.75
2023-03-31T19:36:18.161Z,15.27
2023-03-31T19:38:26.669Z,15.40
2023-03-31T19:40:33.793Z,14.85
2023-03-31T19:42:43.046Z,14.35
2023-03-31T19:44:51.741Z,14.32
2023-03-31T19:46:59.693Z,14.52
2023-03-31T19:49:06.969Z,13.68
2023-03-31T19:51:14.151Z,14.70
2023-03-31T19:53:20.988Z,13.75
2023-03-31T19:55:28.435Z,12.43
2023-03-31T19:57:35.542Z,12.93
2023-03-31T19:59:42.876Z,13.70
2023-03-31T20:01:51.722Z,12.27
2023-03-31T20:03:59.168Z,12.95
2023-03-31T20:06:07.954Z,13.55
2023-03-31T20:08:15.137Z,13.20
2023-03-31T20:10:22.410Z,12.73
2023-03-31T20:12:32.569Z,12.88
2023-03-31T20:14:39.609Z,12.63
2023-03-31T20:16:47.446Z,12.98
2023-03-31T20:18:58.328Z,13.93
2023-03-31T20:21:10.681Z,13.02
2023-03-31T20:23:17.704Z,13.80
2023-03-31T20:25:24.976Z,13.60
2023-03-31T20:27:31.954Z,13.50
2023-03-31T20:29:39.186Z,13.30
2023-03-31T20:31:46.161Z,13.93
2023-03-31T20:33:54.224Z,14.07
2023-03-31T20:36:08.499Z,13.52
2023-03-31T20:38:15.850Z,12.95
2023-03-31T20:40:22.825Z,13.43
2023-03-31T20:42:29.910Z,13.75
2023-03-31T20:44:37.190Z,13.65
2023-03-31T20:46:45.194Z,13.38
2023-03-31T20:48:54.168Z,13.40
2023-03-31T20:51:01.508Z,13.77
2023-03-31T20:53:10.119Z,13.43
2023-03-31T20:55:17.859Z,13.50
2023-03-31T20:57:25.305Z,13.38
2023-03-31T20:59:32.443Z,13.35
2023-03-31T21:01:40.327Z,13.38
2023-03-31T21:03:47.760Z,13.32
2023-03-31T21:05:54.692Z,14.05
2023-03-31T21:08:01.927Z,14.25
2023-03-31T21:10:11.715Z,13.38
2023-03-31T21:12:19.001Z,12.52
2023-03-31T21:14:25.978Z,13.10
2023-03-31T21:16:33.351Z,13.60
2023-03-31T21:18:41.004Z,13.90
2023-03-31T21:20:54.492Z,13.02
2023-03-31T21:23:01.906Z,13.45
2023-03-31T21:25:12.030Z,12.85
2023-03-31T21:27:19.052Z,13.27
2023-03-31T21:29:26.084Z,13.57
2023-03-31T21:31:33.133Z,14.07
2023-03-31T21:33:42.802Z,13.63
2023-03-31T21:35:49.806Z,13.25
2023-03-31T21:37:57.221Z,12.98
2023-03-31T21:40:04.459Z,14.00
2023-03-31T21:42:13.676Z,13.75
2023-03-31T21:44:20.626Z,14.52
2023-03-31T21:46:29.367Z,14.02
2023-03-31T21:48:36.569Z,14.15
2023-03-31T21:50:44.352Z,13.73
2023-03-31T21:52:51.431Z,15.13
2023-03-31T21:54:58.880Z,13.32
2023-03-31T21:57:05.932Z,14.27
2023-03-31T21:59:15.130Z,14.23
2023-03-31T22:01:22.617Z,13.93
2023-03-31T22:03:33.167Z,14.40
2023-03-31T22:05:40.103Z,14.10
2023-03-31T22:07:47.126Z,13.00
2023-03-31T22:09:53.948Z,13.82
2023-03-31T22:12:00.977Z,14.23
2023-03-31T22:14:07.849Z,14.45
2023-03-31T22:16:21.719Z,14.60
2023-03-31T22:18:29.024Z,14.68
2023-03-31T22:20:36.117Z,14.43
2023-03-31T22:22:43.847Z,15.55
2023-03-31T22:24:51.182Z,14.30
2023-03-31T22:26:58.261Z,14.65
2023-03-31T22:29:05.291Z,14.13
2023-03-31T22:31:12.809Z,14.90
2023-03-31T22:33:21.644Z,14.40
2023-03-31T22:35:29.153Z,13.82
2023-03-31T22:37:36.066Z,12.95
2023-03-31T22:39:43.551Z,13.52
2023-03-31T22:41:52.577Z,13.35
2023-03-31T22:43:59.907Z,14.20
2023-03-31T22:46:07.912Z,13.60
2023-03-31T22:48:15.090Z,13.98
2023-03-31T22:50:23.835Z,14.43
2023-03-31T22:52:31.204Z,15.32
2023-03-31T22:54:38.069Z,16.70
2023-03-31T22:56:45.722Z,17.05
2023-03-31T22:58:53.197Z,15.95
2023-03-31T23:01:01.333Z,16.70
2023-03-31T23:03:08.587Z,15.88
2023-03-31T23:05:15.881Z,15.25
2023-03-31T23:07:24.649Z,14.45
2023-03-31T23:09:31.926Z,15.38
2023-03-31T23:11:39.156Z,15.30
2023-03-31T23:13:46.188Z,14.82
2023-03-31T23:15:53.063Z,14.77
2023-03-31T23:18:00.419Z,15.00
2023-03-31T23:20:08.199Z,15.40
2023-03-31T23:22:15.596Z,14.70
2023-03-31T23:24:25.641Z,16.77
2023-03-31T23:26:33.836Z,14.43
2023-03-31T23:28:41.325Z,15.70
2023-03-31T23:30:57.719Z,15.05
2023-03-31T23:33:04.646Z,15.02
2023-03-31T23:35:12.542Z,14.57
2023-03-31T23:37:20.050Z,14.50
2023-03-31T23:39:29.006Z,14.80
2023-03-31T23:41:36.287Z,15.63
2023-03-31T23:43:43.878Z,14.13
2023-03-31T23:45:50.940Z,15.23
2023-03-31T23:47:58.140Z,15.40
2023-03-31T23:50:05.276Z,14.68
2023-03-31T23:52:12.653Z,14.98
2023-03-31T23:54:19.638Z,14.55
2023-03-31T23:56:29.833Z,14.40
2023-03-31T23:58:37.021Z,15.15
